Shorkot Weather



Shorkot's Current Weather

Temprature 23.19o overcast clouds

overcast clouds

Rain: 0 %

Min Temprature23.19o
Max Temprature23.19o
Humidity38
Wind Speed0.9 m/h
Sun Rise05:54:34
Sun Set18:41:01
Current Time: 09-Apr-2020 02:29:07
Lat/Lon: 31.91, 70.88




Shorkot's Geo Location



Shorkot's Weather Forecast

Time Overall Temp Min Temp Max Temp Humidity Wind Speed Rain
09-Apr-2020 (Thu)
05:00:00 overcast clouds 21.740 21.740 21.740 41 0.79 m/h 0 %
08:00:00 broken clouds 25.500 25.500 25.500 31 1.3 m/h 0 %
11:00:00 broken clouds 29.750 29.750 29.750 23 3.83 m/h 0 %
14:00:00 overcast clouds 32.580 32.580 32.580 19 5.35 m/h 0 %
17:00:00 overcast clouds 32.340 32.340 32.340 20 5.5 m/h 0 %
20:00:00 light rain 27.990 27.990 27.990 28 3.66 m/h 32 %
23:00:00 light rain 24.760 24.760 24.760 39 6.96 m/h 38 %
10-Apr-2020 (Fri)
02:00:00 clear sky 21.670 21.670 21.670 53 6.25 m/h 0 %
05:00:00 few clouds 20.540 20.540 20.540 56 3.49 m/h 0 %
08:00:00 clear sky 22.910 22.910 22.910 47 3.31 m/h 0 %
11:00:00 clear sky 28.550 28.550 28.550 31 3.11 m/h 0 %
14:00:00 few clouds 31.390 31.390 31.390 25 2.94 m/h 0 %
17:00:00 scattered clouds 31.630 31.630 31.630 24 3.23 m/h 0 %
20:00:00 scattered clouds 28.220 28.220 28.220 31 3.07 m/h 0 %
23:00:00 scattered clouds 26.770 26.770 26.770 34 2.4 m/h 0 %
11-Apr-2020 (Sat)
02:00:00 overcast clouds 25.260 25.260 25.260 37 1.36 m/h 0 %
05:00:00 overcast clouds 24.180 24.180 24.180 40 1.7 m/h 0 %
08:00:00 broken clouds 28.170 28.170 28.170 30 0.78 m/h 0 %
11:00:00 broken clouds 32.240 32.240 32.240 23 0.45 m/h 0 %
14:00:00 scattered clouds 34.510 34.510 34.510 19 0.94 m/h 0 %
17:00:00 broken clouds 34.680 34.680 34.680 19 0.52 m/h 0 %
20:00:00 overcast clouds 30.690 30.690 30.690 24 2.71 m/h 0 %
23:00:00 overcast clouds 28.760 28.760 28.760 26 2.18 m/h 0 %
12-Apr-2020 (Sun)
02:00:00 overcast clouds 27.050 27.050 27.050 29 1.3 m/h 0 %
05:00:00 overcast clouds 25.670 25.670 25.670 32 1.01 m/h 0 %
08:00:00 overcast clouds 29.870 29.870 29.870 25 1.05 m/h 0 %
11:00:00 overcast clouds 33.850 33.850 33.850 20 1.3 m/h 0 %
14:00:00 broken clouds 36.280 36.280 36.280 17 1.05 m/h 0 %
17:00:00 scattered clouds 36.790 36.790 36.790 16 2.28 m/h 0 %
20:00:00 scattered clouds 32.420 32.420 32.420 23 2.06 m/h 0 %
23:00:00 broken clouds 30.140 30.140 30.140 25 1.77 m/h 0 %
13-Apr-2020 (Mon)
02:00:00 overcast clouds 28.200 28.200 28.200 29 1.04 m/h 0 %
05:00:00 overcast clouds 27.100 27.100 27.100 31 0.93 m/h 0 %
08:00:00 broken clouds 31.050 31.050 31.050 23 1.72 m/h 0 %
11:00:00 broken clouds 35.650 35.650 35.650 18 2.23 m/h 0 %
14:00:00 clear sky 39.420 39.420 39.420 12 2.7 m/h 0 %
17:00:00 clear sky 39.530 39.530 39.530 9 3.7 m/h 0 %
20:00:00 clear sky 34.580 34.580 34.580 14 4.17 m/h 0 %
23:00:00 few clouds 31.990 31.990 31.990 20 2.9 m/h 0 %
14-Apr-2020 (Tue)
02:00:00 scattered clouds 29.540 29.540 29.540 22 1.44 m/h 0 %

Famous Cities (61)